Time;durP1;ratioP1;P1;durP2;ratioP2;P2;SDS_P1;SDS_P2;PMS_P1;PMS_P2;Temp;Humidity;BMP_temperature;BMP_pressure;BME280_temperature;BME280_humidity;BME280_pressure;Samples;Min_cycle;Max_cycle;Signal;HPM_P1;HPM_P2
2023/04/10 00:02:12;;;;;;;16.23;11.80;;;6.70;99.90;;;;;;4993398;28;20602;-69
2023/04/10 00:04:38;;;;;;;15.77;12.20;;;6.60;99.90;;;;;;4991977;28;20180;-68
2023/04/10 00:07:03;;;;;;;16.10;12.30;;;6.60;99.90;;;;;;4993250;28;20649;-68
2023/04/10 00:09:29;;;;;;;16.70;12.80;;;6.50;99.90;;;;;;4988633;28;20211;-68
2023/04/10 00:11:55;;;;;;;15.23;13.43;;;6.50;99.90;;;;;;4992857;28;20183;-69
2023/04/10 00:14:23;;;;;;;16.57;13.23;;;6.60;99.90;;;;;;4992378;28;20878;-69
2023/04/10 00:16:49;;;;;;;17.97;13.90;;;6.50;99.90;;;;;;4992990;28;20184;-68
2023/04/10 00:19:15;;;;;;;14.87;13.17;;;6.50;99.90;;;;;;4990898;28;20458;-68
2023/04/10 00:21:40;;;;;;;16.70;12.93;;;6.50;99.90;;;;;;4991867;28;20963;-69
2023/04/10 00:24:06;;;;;;;16.73;13.73;;;6.30;99.90;;;;;;4992626;28;20665;-68
2023/04/10 00:26:32;;;;;;;16.90;13.00;;;6.30;99.90;;;;;;4992948;28;20559;-68
2023/04/10 00:28:57;;;;;;;14.87;12.20;;;6.30;99.90;;;;;;4989501;28;20239;-69
2023/04/10 00:31:23;;;;;;;17.77;14.13;;;6.30;99.90;;;;;;4991265;28;20265;-69
2023/04/10 00:33:48;;;;;;;15.90;13.73;;;6.20;99.90;;;;;;4990976;28;20188;-69
2023/04/10 00:36:14;;;;;;;17.27;12.63;;;6.20;99.90;;;;;;4992449;28;20645;-69
2023/04/10 00:38:40;;;;;;;12.80;11.13;;;6.10;99.90;;;;;;4991818;28;20267;-69
2023/04/10 00:41:06;;;;;;;16.93;13.10;;;6.00;99.90;;;;;;4992318;28;21041;-69
2023/04/10 00:43:31;;;;;;;17.30;13.27;;;5.90;99.90;;;;;;4987427;28;21246;-69
2023/04/10 00:45:57;;;;;;;15.07;12.30;;;5.80;99.90;;;;;;4991084;28;20189;-68
2023/04/10 00:48:23;;;;;;;16.80;12.47;;;5.80;99.90;;;;;;4990124;28;20219;-69
2023/04/10 00:50:48;;;;;;;14.50;12.97;;;5.80;99.90;;;;;;4990545;28;20470;-69
2023/04/10 00:53:14;;;;;;;13.77;12.23;;;5.80;99.90;;;;;;4977833;28;20182;-69
2023/04/10 00:55:40;;;;;;;16.03;14.10;;;5.70;99.90;;;;;;4987427;28;20180;-68
2023/04/10 00:58:06;;;;;;;17.90;14.27;;;5.70;99.90;;;;;;4987135;28;20245;-68
2023/04/10 01:00:31;;;;;;;19.03;13.10;;;5.70;99.90;;;;;;4991706;28;20380;-69
2023/04/10 01:02:59;;;;;;;17.30;14.10;;;5.70;99.90;;;;;;4986784;28;20551;-69
2023/04/10 01:05:34;;;;;;;13.80;12.00;;;5.60;99.90;;;;;;4992161;28;20179;-69
2023/04/10 01:08:15;;;;;;;14.53;12.90;;;5.50;99.90;;;;;;4977532;28;20549;-69
2023/04/10 01:10:43;;;;;;;17.27;13.63;;;5.50;99.90;;;;;;4990556;28;20447;-69
2023/04/10 01:13:25;;;;;;;15.27;12.73;;;5.50;99.90;;;;;;4991364;28;20447;-69
2023/04/10 01:16:28;;;;;;;15.67;13.60;;;5.50;99.90;;;;;;4981353;28;20439;-69
2023/04/10 01:19:04;;;;;;;15.40;12.73;;;5.40;99.90;;;;;;4980536;28;21804;-69
2023/04/10 01:21:34;;;;;;;16.50;13.70;;;5.40;99.90;;;;;;4982387;28;20439;-69
2023/04/10 01:24:26;;;;;;;17.30;14.37;;;5.40;99.90;;;;;;4991225;28;22321;-68
2023/04/10 01:27:19;;;;;;;16.27;13.37;;;5.40;99.90;;;;;;4991663;28;20489;-70
2023/04/10 01:29:48;;;;;;;14.10;11.50;;;5.30;99.90;;;;;;4986769;28;20505;-69
2023/04/10 01:32:20;;;;;;;17.47;13.57;;;5.30;99.90;;;;;;4988695;28;20584;-69
2023/04/10 01:34:50;;;;;;;18.63;13.07;;;5.30;99.90;;;;;;4990234;28;20943;-69
2023/04/10 01:37:20;;;;;;;16.57;13.37;;;5.20;99.90;;;;;;4987678;28;20959;-69
2023/04/10 01:39:59;;;;;;;14.17;12.47;;;5.20;99.90;;;;;;4986870;28;20474;-69
2023/04/10 01:42:27;;;;;;;14.83;13.07;;;5.30;99.90;;;;;;4984893;28;20440;-69
2023/04/10 01:44:54;;;;;;;15.40;13.10;;;5.20;99.90;;;;;;4991502;28;20952;-69
2023/04/10 01:47:21;;;;;;;18.07;14.00;;;5.30;99.90;;;;;;4988359;28;20442;-69
2023/04/10 01:49:49;;;;;;;14.73;12.70;;;5.20;99.90;;;;;;4990677;28;20470;-69
2023/04/10 01:52:16;;;;;;;18.30;14.40;;;5.20;99.90;;;;;;4986902;28;20854;-69
2023/04/10 01:54:44;;;;;;;15.13;12.40;;;5.20;99.90;;;;;;4988827;28;20777;-69
2023/04/10 01:57:12;;;;;;;15.83;13.10;;;5.20;99.90;;;;;;4985586;28;20495;-69
2023/04/10 01:59:38;;;;;;;17.57;14.13;;;5.10;99.90;;;;;;4982474;28;20459;-69
2023/04/10 02:02:06;;;;;;;17.43;13.57;;;5.10;99.90;;;;;;4991336;28;20510;-69
2023/04/10 02:04:32;;;;;;;17.53;14.77;;;5.10;99.90;;;;;;4991473;28;20206;-69
2023/04/10 02:07:09;;;;;;;15.23;12.87;;;5.10;99.90;;;;;;4990146;28;20446;-70
2023/04/10 02:09:45;;;;;;;15.77;13.10;;;5.10;99.90;;;;;;4984753;28;20258;-69
2023/04/10 02:12:16;;;;;;;15.23;13.20;;;5.10;99.90;;;;;;4990604;28;20442;-69
2023/04/10 02:14:45;;;;;;;16.30;14.20;;;5.10;99.90;;;;;;4990387;28;20466;-68
2023/04/10 02:17:14;;;;;;;14.60;11.77;;;5.10;99.90;;;;;;4986398;28;20439;-69
2023/04/10 02:19:41;;;;;;;17.90;13.77;;;5.00;99.90;;;;;;4989025;28;20546;-69
2023/04/10 02:22:07;;;;;;;17.27;13.63;;;5.00;99.90;;;;;;4986891;28;20441;-69
2023/04/10 02:24:34;;;;;;;18.53;14.33;;;4.90;99.90;;;;;;4986875;28;20438;-69
2023/04/10 02:27:00;;;;;;;15.20;12.63;;;4.90;99.90;;;;;;4984462;28;20449;-69
2023/04/10 02:29:26;;;;;;;16.13;13.17;;;4.80;99.90;;;;;;4987033;28;20466;-68
2023/04/10 02:31:51;;;;;;;16.77;13.07;;;4.70;99.90;;;;;;4989466;28;20497;-69
2023/04/10 02:34:17;;;;;;;15.40;12.60;;;4.60;99.90;;;;;;4989204;28;20191;-69
2023/04/10 02:36:42;;;;;;;15.83;12.43;;;4.60;99.90;;;;;;4984927;28;20192;-69
2023/04/10 02:39:08;;;;;;;15.07;13.50;;;4.60;99.90;;;;;;4986736;28;20712;-69
2023/04/10 02:41:33;;;;;;;16.70;13.17;;;4.60;99.90;;;;;;4976356;28;20192;-69
2023/04/10 02:43:59;;;;;;;15.97;12.70;;;4.60;99.90;;;;;;4987127;28;20186;-69
2023/04/10 02:46:24;;;;;;;20.70;14.87;;;4.60;99.90;;;;;;4991742;28;20187;-69
2023/04/10 02:48:51;;;;;;;17.70;13.60;;;4.60;99.90;;;;;;4987667;28;20209;-68
2023/04/10 02:51:17;;;;;;;17.33;13.80;;;4.60;99.90;;;;;;4986974;28;20184;-70
2023/04/10 02:53:43;;;;;;;19.83;14.70;;;4.60;99.90;;;;;;4991298;28;20850;-69
2023/04/10 02:56:10;;;;;;;16.57;12.70;;;4.60;99.90;;;;;;4992543;28;20176;-69
2023/04/10 02:58:37;;;;;;;17.53;13.23;;;4.60;99.90;;;;;;4992659;28;20493;-69
2023/04/10 03:01:04;;;;;;;18.77;13.13;;;4.60;99.90;;;;;;4989314;28;20457;-69
2023/04/10 03:03:30;;;;;;;17.53;13.80;;;4.60;99.90;;;;;;4994338;28;20935;-69
2023/04/10 03:05:55;;;;;;;20.03;13.20;;;4.60;99.90;;;;;;4994429;28;20434;-69
2023/04/10 03:08:21;;;;;;;17.20;13.00;;;4.60;99.90;;;;;;4993433;28;20215;-69
2023/04/10 03:10:47;;;;;;;18.30;14.00;;;4.60;99.90;;;;;;4992414;28;20180;-69
2023/04/10 03:13:13;;;;;;;18.97;13.40;;;4.50;99.90;;;;;;4984949;28;20184;-69
2023/04/10 03:15:39;;;;;;;15.33;12.20;;;4.50;99.90;;;;;;4984753;28;20777;-69
2023/04/10 03:18:05;;;;;;;16.30;12.23;;;4.50;99.90;;;;;;4986178;28;20458;-69
2023/04/10 03:20:32;;;;;;;21.73;13.30;;;4.50;99.90;;;;;;4986221;28;20434;-69
2023/04/10 03:22:58;;;;;;;19.27;14.07;;;4.50;99.90;;;;;;4987137;28;20188;-70
2023/04/10 03:25:24;;;;;;;20.23;13.73;;;4.50;99.90;;;;;;4994221;28;20462;-69
2023/04/10 03:27:50;;;;;;;16.07;12.77;;;4.50;99.90;;;;;;4992901;28;20427;-69
2023/04/10 03:30:16;;;;;;;16.57;12.57;;;4.40;99.90;;;;;;4993567;28;20530;-69
2023/04/10 03:32:42;;;;;;;15.70;11.93;;;4.50;99.90;;;;;;4986591;28;20176;-69
2023/04/10 03:35:08;;;;;;;19.87;13.60;;;4.50;99.90;;;;;;4986800;28;20176;-69
2023/04/10 03:37:34;;;;;;;16.67;13.50;;;4.40;99.90;;;;;;4986685;28;20439;-70
2023/04/10 03:40:00;;;;;;;17.17;13.17;;;4.40;99.90;;;;;;5011288;23;21006;-68
2023/04/10 03:42:25;;;;;;;17.13;13.37;;;4.40;99.90;;;;;;4985561;28;20637;-69
2023/04/10 03:44:51;;;;;;;18.30;13.13;;;4.40;99.90;;;;;;4993083;28;20226;-69
2023/04/10 03:47:17;;;;;;;16.07;13.30;;;4.30;99.90;;;;;;4989229;28;20446;-69
2023/04/10 03:49:42;;;;;;;16.67;12.47;;;4.30;99.90;;;;;;4992354;28;20294;-71
2023/04/10 03:52:08;;;;;;;16.47;13.03;;;4.30;99.90;;;;;;4993041;28;20175;-68
2023/04/10 03:54:33;;;;;;;15.50;11.73;;;4.30;99.90;;;;;;4993294;28;20188;-69
2023/04/10 03:57:00;;;;;;;15.00;11.73;;;4.40;99.90;;;;;;4990810;28;20176;-67
2023/04/10 03:59:25;;;;;;;17.30;13.37;;;4.30;99.90;;;;;;4990414;28;20227;-68
2023/04/10 04:01:52;;;;;;;15.77;13.00;;;4.30;99.90;;;;;;4992962;28;20474;-67
2023/04/10 04:04:17;;;;;;;16.27;13.47;;;4.30;99.90;;;;;;4993356;28;20184;-67
2023/04/10 04:06:43;;;;;;;16.63;12.53;;;4.20;99.90;;;;;;4992724;28;20438;-68
2023/04/10 04:09:09;;;;;;;15.50;13.40;;;4.20;99.90;;;;;;4991521;28;20254;-67
2023/04/10 04:11:34;;;;;;;19.60;14.10;;;4.20;99.90;;;;;;4993161;28;20203;-69
2023/04/10 04:14:00;;;;;;;14.77;12.70;;;4.20;99.90;;;;;;4993351;28;20176;-68
2023/04/10 04:16:26;;;;;;;16.10;12.03;;;4.20;99.90;;;;;;4992463;28;20207;-68
2023/04/10 04:18:51;;;;;;;14.70;11.20;;;4.20;99.90;;;;;;4990793;28;20555;-70
2023/04/10 04:21:17;;;;;;;14.43;11.40;;;4.20;99.90;;;;;;4991111;28;20199;-67
2023/04/10 04:23:43;;;;;;;18.97;13.47;;;4.20;99.90;;;;;;4993043;28;20175;-67
2023/04/10 04:26:08;;;;;;;21.00;15.27;;;4.20;99.90;;;;;;4992953;28;20680;-68
2023/04/10 04:28:34;;;;;;;16.47;13.30;;;4.20;99.90;;;;;;4991194;28;20681;-69
2023/04/10 04:31:00;;;;;;;16.97;13.70;;;4.20;99.90;;;;;;4992016;28;20532;-70
2023/04/10 04:33:25;;;;;;;17.17;13.23;;;4.20;99.90;;;;;;4991501;28;20180;-68
2023/04/10 04:35:51;;;;;;;14.30;11.47;;;4.30;99.90;;;;;;4991441;28;20438;-70
2023/04/10 04:38:18;;;;;;;17.10;13.50;;;4.40;99.90;;;;;;4989232;28;20558;-67
2023/04/10 04:40:44;;;;;;;17.07;11.63;;;4.40;99.90;;;;;;4985341;28;20172;-68
2023/04/10 04:43:10;;;;;;;15.03;12.13;;;4.50;99.90;;;;;;4992094;28;20440;-68
2023/04/10 04:45:35;;;;;;;13.67;11.43;;;4.50;99.90;;;;;;4992471;28;20183;-67
2023/04/10 04:48:01;;;;;;;18.30;13.80;;;4.60;99.90;;;;;;4992494;28;20231;-68
2023/04/10 04:50:26;;;;;;;15.97;11.47;;;4.60;99.90;;;;;;4991060;28;20653;-67
2023/04/10 04:52:52;;;;;;;16.47;12.50;;;4.60;99.90;;;;;;4992082;28;20178;-70
2023/04/10 04:55:18;;;;;;;15.93;11.90;;;4.70;99.90;;;;;;4992016;28;20310;-68
2023/04/10 04:57:43;;;;;;;15.10;11.50;;;4.70;99.90;;;;;;4991280;28;20171;-69
2023/04/10 05:00:09;;;;;;;16.37;12.17;;;4.70;99.90;;;;;;4990800;28;20202;-68
2023/04/10 05:02:35;;;;;;;16.90;12.37;;;4.70;99.90;;;;;;4990758;28;20202;-68
2023/04/10 05:05:00;;;;;;;17.50;12.93;;;4.70;99.90;;;;;;4992214;28;20947;-68
2023/04/10 05:07:26;;;;;;;16.77;12.53;;;4.80;99.90;;;;;;4992377;28;20275;-68
2023/04/10 05:09:51;;;;;;;15.50;12.00;;;4.80;99.90;;;;;;4990070;28;20203;-68
2023/04/10 05:12:17;;;;;;;13.00;11.60;;;5.00;99.90;;;;;;4992169;28;20242;-68
2023/04/10 05:14:44;;;;;;;14.30;11.77;;;5.10;99.90;;;;;;4992061;28;20179;-68
2023/04/10 05:17:10;;;;;;;14.80;11.67;;;5.30;99.90;;;;;;4992163;28;20167;-68
2023/04/10 05:19:35;;;;;;;13.27;11.87;;;5.40;99.90;;;;;;4988724;28;20485;-68
2023/04/10 05:22:00;;;;;;;15.00;11.93;;;5.50;99.90;;;;;;4991833;28;20439;-68
2023/04/10 05:24:26;;;;;;;17.00;12.17;;;5.60;99.90;;;;;;4992008;28;20187;-68
2023/04/10 05:26:51;;;;;;;15.03;11.53;;;5.70;99.90;;;;;;4991952;28;20183;-68
2023/04/10 05:29:17;;;;;;;15.30;12.27;;;5.80;99.90;;;;;;4990251;28;20652;-69
2023/04/10 05:31:42;;;;;;;12.20;10.20;;;5.90;99.90;;;;;;4991138;28;20180;-69
2023/04/10 05:34:08;;;;;;;15.47;11.63;;;6.00;99.90;;;;;;4991771;28;20245;-68
2023/04/10 05:36:34;;;;;;;16.20;12.20;;;6.10;99.90;;;;;;4990555;28;20264;-68
2023/04/10 05:38:59;;;;;;;16.20;12.67;;;6.20;99.90;;;;;;4988958;28;20219;-69
2023/04/10 05:41:25;;;;;;;14.07;11.63;;;6.30;99.90;;;;;;4988569;28;20478;-68
2023/04/10 05:43:50;;;;;;;13.30;11.57;;;6.30;99.90;;;;;;4990908;28;20191;-68
2023/04/10 05:46:17;;;;;;;14.07;10.40;;;6.40;99.90;;;;;;4991659;28;20246;-68
2023/04/10 05:48:42;;;;;;;14.33;11.37;;;6.40;99.90;;;;;;4990283;28;20218;-68
2023/04/10 05:51:08;;;;;;;13.47;11.37;;;6.40;99.90;;;;;;4991789;28;20446;-68
2023/04/10 05:53:34;;;;;;;13.90;11.67;;;6.40;99.90;;;;;;4989888;28;20183;-68
2023/04/10 05:56:00;;;;;;;13.00;11.33;;;6.60;99.90;;;;;;4991776;28;20171;-68
2023/04/10 05:58:26;;;;;;;12.60;10.57;;;6.70;99.90;;;;;;4990012;28;20550;-68
2023/04/10 06:00:52;;;;;;;15.20;11.63;;;6.80;99.90;;;;;;4989875;28;20447;-68
2023/04/10 06:03:18;;;;;;;16.40;12.40;;;6.80;99.90;;;;;;4991402;28;20438;-69
2023/04/10 06:05:45;;;;;;;14.63;11.60;;;6.80;99.90;;;;;;4991733;28;20214;-68
2023/04/10 06:08:10;;;;;;;15.03;11.67;;;7.00;99.90;;;;;;4991021;28;20512;-67
2023/04/10 06:10:36;;;;;;;13.30;11.33;;;7.10;99.90;;;;;;4990604;28;20442;-68
2023/04/10 06:13:01;;;;;;;13.90;11.70;;;7.30;99.90;;;;;;4991136;28;20195;-68
2023/04/10 06:15:27;;;;;;;11.80;9.83;;;7.50;99.90;;;;;;4991371;28;20551;-69
2023/04/10 06:17:53;;;;;;;12.27;11.00;;;7.50;99.90;;;;;;4991411;28;20183;-68
2023/04/10 06:20:19;;;;;;;13.03;11.37;;;7.50;99.90;;;;;;4988103;28;20496;-68
2023/04/10 06:22:45;;;;;;;12.87;10.73;;;7.50;99.90;;;;;;4992862;28;20176;-68
2023/04/10 06:25:10;;;;;;;13.13;11.17;;;7.60;99.90;;;;;;4994412;28;20211;-68
2023/04/10 06:27:36;;;;;;;12.80;11.47;;;7.60;99.90;;;;;;4995039;28;20641;-68
2023/04/10 06:30:02;;;;;;;12.63;11.00;;;7.60;99.90;;;;;;4994399;28;20207;-68
2023/04/10 06:32:27;;;;;;;14.47;11.33;;;7.60;99.90;;;;;;4995098;28;20190;-68
2023/04/10 06:34:53;;;;;;;15.73;12.30;;;7.70;99.90;;;;;;4992635;28;20263;-68
2023/04/10 06:37:18;;;;;;;12.53;10.70;;;7.70;99.90;;;;;;4995030;28;20176;-68
2023/04/10 06:39:44;;;;;;;12.50;10.37;;;7.70;99.90;;;;;;4993831;28;20309;-67
2023/04/10 06:42:09;;;;;;;13.03;10.57;;;7.60;99.90;;;;;;4992413;28;20207;-68
2023/04/10 06:44:36;;;;;;;14.30;10.13;;;7.60;99.90;;;;;;4992657;28;20576;-69
2023/04/10 06:47:01;;;;;;;12.63;10.20;;;7.80;99.90;;;;;;4994863;28;20450;-68
2023/04/10 06:49:27;;;;;;;11.40;10.20;;;7.90;99.90;;;;;;4992736;28;20219;-68
2023/04/10 06:51:52;;;;;;;12.30;9.27;;;8.10;99.90;;;;;;4994014;28;20270;-67
2023/04/10 06:54:18;;;;;;;15.17;10.83;;;8.10;99.90;;;;;;4991168;28;20539;-68
2023/04/10 06:56:43;;;;;;;14.40;10.27;;;8.40;99.90;;;;;;4994642;28;20218;-69
2023/04/10 06:59:09;;;;;;;11.87;9.70;;;8.70;99.90;;;;;;4992584;28;20195;-68
2023/04/10 07:01:35;;;;;;;12.60;10.60;;;9.00;99.90;;;;;;4987366;28;20219;-68
2023/04/10 07:04:01;;;;;;;10.73;9.20;;;9.10;99.90;;;;;;4991829;28;20723;-69
2023/04/10 07:06:26;;;;;;;10.27;9.27;;;9.30;99.90;;;;;;4990469;28;20447;-69
2023/04/10 07:08:52;;;;;;;10.20;8.57;;;9.60;99.90;;;;;;4992713;28;20712;-69
2023/04/10 07:11:17;;;;;;;10.03;9.00;;;9.90;99.90;;;;;;4993957;28;20262;-68
2023/04/10 07:13:42;;;;;;;13.07;11.13;;;10.10;99.90;;;;;;4994035;28;20219;-68
2023/04/10 07:16:09;;;;;;;10.97;8.67;;;10.10;99.90;;;;;;4993493;28;20212;-68
2023/04/10 07:18:37;;;;;;;9.80;8.80;;;10.30;99.90;;;;;;4992539;28;20239;-69
2023/04/10 07:21:08;;;;;;;11.30;8.90;;;10.40;99.90;;;;;;4993757;28;20477;-68
2023/04/10 07:23:34;;;;;;;9.63;8.50;;;10.60;99.90;;;;;;4991434;28;20442;-68
2023/04/10 07:26:00;;;;;;;11.00;9.33;;;10.60;99.90;;;;;;4991923;28;20950;-68
2023/04/10 07:28:25;;;;;;;9.07;8.07;;;10.50;99.90;;;;;;4992800;28;20466;-68
2023/04/10 07:30:51;;;;;;;9.20;8.30;;;10.70;99.90;;;;;;4993704;28;20191;-68
2023/04/10 07:33:16;;;;;;;8.83;8.00;;;11.00;99.90;;;;;;4991544;28;20565;-68
2023/04/10 07:35:42;;;;;;;11.60;7.90;;;11.30;99.90;;;;;;4993168;28;20215;-69
2023/04/10 07:38:08;;;;;;;9.03;8.20;;;11.40;99.90;;;;;;4993336;28;20194;-68
2023/04/10 07:40:33;;;;;;;11.03;7.73;;;11.50;99.90;;;;;;4991084;28;20621;-68
2023/04/10 07:42:58;;;;;;;9.73;8.40;;;11.70;99.90;;;;;;4992916;28;20657;-69
2023/04/10 07:45:25;;;;;;;8.20;7.20;;;11.70;99.90;;;;;;4992774;28;20192;-68
2023/04/10 07:47:50;;;;;;;8.57;7.60;;;12.00;99.90;;;;;;4993008;28;20666;-70
2023/04/10 07:50:16;;;;;;;8.40;7.60;;;12.10;98.70;;;;;;4989230;28;20477;-70
2023/04/10 07:52:41;;;;;;;8.33;7.40;;;12.30;98.30;;;;;;4993181;28;20199;-70
2023/04/10 07:55:07;;;;;;;7.97;6.63;;;12.20;96.80;;;;;;4993155;28;20587;-71
2023/04/10 07:57:34;;;;;;;7.63;6.93;;;12.30;97.30;;;;;;4992905;28;20211;-71
2023/04/10 08:00:00;;;;;;;6.90;6.20;;;12.50;95.70;;;;;;4991508;28;20517;-69
2023/04/10 08:02:25;;;;;;;7.10;6.47;;;12.70;95.60;;;;;;4988468;28;20815;-69
2023/04/10 08:04:51;;;;;;;7.40;6.70;;;12.80;94.30;;;;;;4988269;28;20207;-68
2023/04/10 08:07:19;;;;;;;6.77;6.17;;;13.00;94.80;;;;;;4988312;28;20195;-68
2023/04/10 08:09:44;;;;;;;5.50;4.97;;;13.20;92.60;;;;;;4991781;28;20227;-69
2023/04/10 08:12:10;;;;;;;6.13;5.53;;;13.70;91.30;;;;;;4989735;28;20834;-68
2023/04/10 08:14:35;;;;;;;6.40;5.80;;;13.80;90.30;;;;;;4992069;28;20655;-68
2023/04/10 08:17:01;;;;;;;5.90;5.37;;;14.00;87.80;;;;;;4992594;28;20227;-69
2023/04/10 08:19:27;;;;;;;5.90;5.40;;;14.00;85.60;;;;;;4991150;28;20203;-68
2023/04/10 08:21:52;;;;;;;6.63;6.10;;;14.20;84.80;;;;;;4992781;28;20195;-68
2023/04/10 08:24:19;;;;;;;8.53;5.70;;;14.30;83.30;;;;;;4990932;28;20633;-69
2023/04/10 08:26:44;;;;;;;6.13;5.53;;;14.70;82.00;;;;;;4990723;28;20190;-68
2023/04/10 08:29:10;;;;;;;6.23;5.63;;;14.50;78.90;;;;;;4991435;28;20857;-68
2023/04/10 08:31:36;;;;;;;6.23;5.70;;;14.00;81.20;;;;;;4992256;28;20253;-68
2023/04/10 08:34:02;;;;;;;5.63;5.13;;;14.10;81.30;;;;;;4989523;28;20439;-68
2023/04/10 08:36:28;;;;;;;5.67;5.17;;;14.00;81.30;;;;;;4991935;28;20186;-68
2023/04/10 08:38:54;;;;;;;5.90;5.27;;;14.30;79.80;;;;;;4990748;28;20843;-69
2023/04/10 08:41:19;;;;;;;6.50;5.90;;;14.80;79.00;;;;;;4991941;28;20273;-68
2023/04/10 08:43:45;;;;;;;6.00;5.50;;;15.30;77.00;;;;;;4991186;28;20187;-68
2023/04/10 08:46:13;;;;;;;5.60;5.20;;;15.60;76.50;;;;;;4990829;28;20184;-68
2023/04/10 08:48:46;;;;;;;6.50;5.90;;;15.70;75.50;;;;;;4990349;28;20301;-68
2023/04/10 08:51:25;;;;;;;6.00;5.40;;;15.30;74.10;;;;;;4992063;28;20509;-68
2023/04/10 08:53:56;;;;;;;6.00;5.33;;;15.60;76.50;;;;;;4991557;28;21006;-68
2023/04/10 08:56:23;;;;;;;6.10;5.17;;;16.10;75.30;;;;;;4992233;28;20435;-68
2023/04/10 08:58:50;;;;;;;6.60;6.00;;;16.40;73.60;;;;;;4991213;28;20462;-68
2023/04/10 09:01:19;;;;;;;7.43;6.73;;;16.50;71.60;;;;;;4991065;28;20443;-68
2023/04/10 09:03:47;;;;;;;6.50;6.00;;;16.60;71.30;;;;;;4990963;28;20525;-68
2023/04/10 09:06:12;;;;;;;6.07;5.57;;;16.60;69.30;;;;;;4990205;28;20819;-68
2023/04/10 09:08:38;;;;;;;6.40;5.87;;;16.50;70.10;;;;;;4990383;28;20474;-68
2023/04/10 09:11:04;;;;;;;5.60;5.10;;;16.70;70.90;;;;;;4991320;28;20175;-68
2023/04/10 09:13:41;;;;;;;5.53;5.10;;;17.10;66.30;;;;;;4991789;28;20207;-67
2023/04/10 09:16:08;;;;;;;5.50;5.00;;;17.40;65.30;;;;;;4985932;28;20434;-69
2023/04/10 09:18:48;;;;;;;6.00;5.50;;;17.70;64.10;;;;;;4991115;28;20462;-68
2023/04/10 09:21:16;;;;;;;5.10;4.70;;;17.90;60.60;;;;;;4983001;28;20438;-68
2023/04/10 09:23:43;;;;;;;5.60;5.10;;;17.30;60.10;;;;;;4988164;28;20435;-67
2023/04/10 09:26:25;;;;;;;4.67;4.30;;;17.80;59.60;;;;;;4987302;28;20960;-72
2023/04/10 09:29:05;;;;;;;5.07;4.67;;;18.20;59.50;;;;;;4988579;28;20498;-75
2023/04/10 09:31:38;;;;;;;4.10;3.80;;;18.20;59.00;;;;;;4988574;28;20430;-74
2023/04/10 09:34:12;;;;;;;4.87;4.47;;;18.60;57.60;;;;;;4991839;28;20435;-76
2023/04/10 09:36:40;;;;;;;4.73;4.37;;;19.20;56.20;;;;;;4992392;28;20581;-76
2023/04/10 09:39:06;;;;;;;4.47;4.17;;;19.50;55.30;;;;;;4990461;28;20474;-76
2023/04/10 09:41:32;;;;;;;4.97;4.50;;;20.30;53.50;;;;;;4991621;28;20442;-73
2023/04/10 09:44:09;;;;;;;4.20;3.90;;;20.00;52.40;;;;;;4991018;28;21002;-77
2023/04/10 09:46:34;;;;;;;4.23;3.93;;;19.40;52.50;;;;;;4990377;28;20313;-74
2023/04/10 09:49:03;;;;;;;4.87;4.47;;;18.60;53.60;;;;;;4988738;28;20516;-75
2023/04/10 09:51:34;;;;;;;4.67;4.37;;;18.80;53.30;;;;;;4992658;28;20180;-76
2023/04/10 09:54:01;;;;;;;4.07;3.77;;;18.90;53.30;;;;;;4991431;28;20476;-75
2023/04/10 09:56:28;;;;;;;4.07;3.77;;;20.00;52.30;;;;;;4992343;28;20449;-74
2023/04/10 09:58:58;;;;;;;3.53;3.33;;;20.60;47.80;;;;;;4989936;28;20994;-75
2023/04/10 10:01:27;;;;;;;4.27;3.97;;;20.10;48.10;;;;;;4995278;28;20466;-76
2023/04/10 10:03:54;;;;;;;3.40;3.20;;;19.60;49.50;;;;;;4994994;28;20438;-74
2023/04/10 10:06:21;;;;;;;4.10;3.80;;;19.30;49.40;;;;;;4994532;28;20453;-74
2023/04/10 10:08:47;;;;;;;3.90;3.60;;;19.60;47.80;;;;;;4992502;28;20470;-74
2023/04/10 10:11:16;;;;;;;3.23;3.03;;;20.10;47.70;;;;;;4994484;28;20815;-74
2023/04/10 10:13:53;;;;;;;4.27;3.97;;;20.30;46.10;;;;;;4994923;28;20509;-75
2023/04/10 10:16:56;;;;;;;4.27;3.93;;;20.10;46.60;;;;;;4994155;28;20520;-74
2023/04/10 10:19:43;;;;;;;3.70;3.40;;;20.20;46.20;;;;;;4944583;29;20526;-75
2023/04/10 10:22:09;;;;;;;3.60;3.30;;;22.00;45.30;;;;;;4989227;28;20441;-73
2023/04/10 10:24:37;;;;;;;3.97;3.67;;;22.40;43.70;;;;;;4990714;28;20435;-76
2023/04/10 10:27:06;;;;;;;4.30;4.00;;;22.90;42.00;;;;;;4984043;28;20530;-76
2023/04/10 10:29:34;;;;;;;3.70;3.40;;;23.50;41.60;;;;;;4988464;28;20485;-77
2023/04/10 10:32:02;;;;;;;4.40;4.10;;;23.80;39.10;;;;;;4985347;28;20447;-76
2023/04/10 10:34:28;;;;;;;3.57;3.37;;;24.50;39.40;;;;;;4987321;28;20529;-75
2023/04/10 10:36:54;;;;;;;3.63;3.40;;;24.40;37.70;;;;;;4995286;28;21003;-76
2023/04/10 10:39:43;;;;;;;3.30;3.03;;;24.90;37.70;;;;;;4986944;28;20222;-75
2023/04/10 10:42:33;;;;;;;3.40;3.20;;;25.80;35.50;;;;;;4990579;28;20187;-75
2023/04/10 10:45:11;;;;;;;3.03;2.83;;;25.30;34.30;;;;;;4989446;28;20458;-75
2023/04/10 10:47:43;;;;;;;3.80;3.50;;;25.40;33.50;;;;;;4993912;28;20800;-75
2023/04/10 10:50:09;;;;;;;3.20;3.00;;;24.70;34.50;;;;;;4988087;28;20495;-75
2023/04/10 10:52:47;;;;;;;3.13;2.93;;;24.50;34.50;;;;;;4993173;28;20439;-75
2023/04/10 10:55:26;;;;;;;3.07;2.80;;;25.10;33.40;;;;;;4994506;28;20175;-75
2023/04/10 10:57:52;;;;;;;3.07;2.87;;;24.50;33.20;;;;;;4993612;28;20435;-76
2023/04/10 11:00:22;;;;;;;2.83;2.63;;;24.20;33.40;;;;;;4983776;28;20455;-75
2023/04/10 11:03:06;;;;;;;3.10;2.90;;;22.70;34.50;;;;;;4993788;28;20526;-75
2023/04/10 11:05:53;;;;;;;3.20;3.00;;;23.20;34.70;;;;;;4994208;28;20430;-76
2023/04/10 11:08:36;;;;;;;3.20;2.63;;;23.60;34.50;;;;;;4991614;28;20467;-75
2023/04/10 11:11:09;;;;;;;3.07;2.87;;;24.70;34.00;;;;;;4993764;28;20434;-75
2023/04/10 11:13:40;;;;;;;2.43;2.23;;;24.10;33.30;;;;;;4993210;28;20431;-75
2023/04/10 11:16:11;;;;;;;3.00;2.80;;;23.60;33.20;;;;;;4993523;28;20465;-75
2023/04/10 11:18:45;;;;;;;2.70;2.50;;;24.80;33.00;;;;;;4992900;28;20450;-76
2023/04/10 11:21:21;;;;;;;1.97;1.87;;;25.30;31.20;;;;;;4992049;28;20972;-75
2023/04/10 11:23:51;;;;;;;2.90;2.70;;;26.60;30.40;;;;;;4992676;28;20434;-70
2023/04/10 11:26:32;;;;;;;3.00;2.80;;;28.20;30.00;;;;;;4992480;28;20836;-70
2023/04/10 11:28:58;;;;;;;6.00;2.27;;;27.70;28.80;;;;;;4992388;28;20821;-70
2023/04/10 11:31:24;;;;;;;2.53;2.43;;;27.40;29.00;;;;;;4992167;28;20470;-70
2023/04/10 11:33:59;;;;;;;1.77;1.67;;;27.10;28.50;;;;;;4992445;28;20437;-69
2023/04/10 11:36:26;;;;;;;2.20;2.10;;;26.90;28.20;;;;;;4993701;28;20437;-70
2023/04/10 11:38:57;;;;;;;2.70;2.50;;;26.90;28.30;;;;;;4992254;28;20466;-69
2023/04/10 11:41:31;;;;;;;2.40;2.30;;;26.70;28.30;;;;;;4992406;28;20435;-69
2023/04/10 11:44:01;;;;;;;2.67;2.53;;;27.10;28.10;;;;;;4989660;28;20447;-70
2023/04/10 11:46:27;;;;;;;2.27;2.07;;;28.40;28.00;;;;;;4993240;28;20994;-70
2023/04/10 11:49:01;;;;;;;2.47;2.27;;;29.90;26.80;;;;;;4990684;28;20466;-70
2023/04/10 11:51:27;;;;;;;3.70;3.50;;;28.50;25.60;;;;;;4991126;28;20534;-70
2023/04/10 11:54:09;;;;;;;2.33;2.23;;;28.10;26.50;;;;;;4991829;28;20517;-70
2023/04/10 11:56:36;;;;;;;2.10;2.00;;;29.90;25.60;;;;;;4990617;28;20262;-70
2023/04/10 11:59:06;;;;;;;2.47;2.37;;;30.80;24.60;;;;;;4992453;28;20541;-70
2023/04/10 12:01:32;;;;;;;1.93;1.83;;;29.30;24.90;;;;;;4993477;28;20951;-70
2023/04/10 12:03:59;;;;;;;3.13;2.93;;;28.20;25.50;;;;;;4992548;28;20434;-70
2023/04/10 12:06:26;;;;;;;1.70;1.60;;;28.50;25.00;;;;;;4990109;28;20440;-70
2023/04/10 12:08:52;;;;;;;1.67;1.57;;;29.40;24.40;;;;;;4992308;28;20474;-69
2023/04/10 12:11:22;;;;;;;1.87;1.77;;;27.30;24.70;;;;;;4991589;28;20811;-69
2023/04/10 12:13:51;;;;;;;1.80;1.70;;;26.00;25.60;;;;;;4992397;28;20230;-69
2023/04/10 12:16:16;;;;;;;1.90;1.80;;;26.70;25.60;;;;;;4991698;28;20434;-69
2023/04/10 12:18:44;;;;;;;5.07;4.63;;;26.50;24.70;;;;;;4991541;28;20561;-69
2023/04/10 12:21:09;;;;;;;1.63;1.53;;;25.70;24.40;;;;;;4992691;28;20274;-69
2023/04/10 12:23:37;;;;;;;1.40;1.30;;;26.20;24.00;;;;;;4993052;28;20904;-69
2023/04/10 12:26:13;;;;;;;1.57;1.47;;;26.20;23.70;;;;;;4991521;28;20255;-69
2023/04/10 12:28:41;;;;;;;1.00;1.00;;;25.60;23.60;;;;;;4991386;28;20478;-69
2023/04/10 12:31:08;;;;;;;1.30;1.20;;;26.00;23.60;;;;;;4991851;28;20430;-69
2023/04/10 12:33:33;;;;;;;1.30;1.20;;;25.80;23.70;;;;;;4992219;28;20440;-69
2023/04/10 12:35:59;;;;;;;1.50;1.40;;;26.80;23.80;;;;;;4991270;28;20525;-69
2023/04/10 12:38:39;;;;;;;1.10;1.10;;;26.90;23.50;;;;;;4989703;28;20223;-69
2023/04/10 12:41:05;;;;;;;1.10;1.00;;;26.50;23.90;;;;;;4990109;28;20203;-69
2023/04/10 12:43:41;;;;;;;1.47;1.37;;;26.70;23.70;;;;;;4992594;28;20510;-69
2023/04/10 12:46:09;;;;;;;1.50;1.40;;;25.30;23.30;;;;;;4991403;28;20436;-69